createdAt,value
2022-12-01T00:00:33.758Z,99124.69
2022-12-01T00:03:00.880Z,99125.47
2022-12-01T00:05:28.093Z,99120.44
2022-12-01T00:07:55.207Z,99112.72
2022-12-01T00:10:28.656Z,99116.25
2022-12-01T00:12:55.709Z,99122.28
2022-12-01T00:15:22.801Z,99118.84
2022-12-01T00:17:49.947Z,99118.84
2022-12-01T00:20:17.016Z,99116.38
2022-12-01T00:22:44.125Z,99116.38
2022-12-01T00:25:11.181Z,99110.41
2022-12-01T00:27:38.269Z,99125.19
2022-12-01T00:30:05.340Z,99122.56
2022-12-01T00:32:32.422Z,99115.63
2022-12-01T00:34:59.536Z,99113.00
2022-12-01T00:37:26.589Z,99118.31
2022-12-01T00:39:53.649Z,99110.53
2022-12-01T00:42:20.951Z,99116.66
2022-12-01T00:44:48.207Z,99115.06
2022-12-01T00:47:15.288Z,99123.69
2022-12-01T00:49:42.536Z,99124.63
2022-12-01T00:52:09.590Z,99126.28
2022-12-01T00:54:36.814Z,99127.97
2022-12-01T00:57:03.875Z,99123.88
2022-12-01T00:59:30.937Z,99127.41
2022-12-01T01:01:58.107Z,99126.47
2022-12-01T01:04:25.236Z,99125.53
2022-12-01T01:06:52.664Z,99130.94
2022-12-01T01:09:19.746Z,99130.94
2022-12-01T01:11:46.812Z,99127.53
2022-12-01T01:14:13.870Z,99125.84
2022-12-01T01:16:41.055Z,99126.66
2022-12-01T01:19:08.198Z,99122.31
2022-12-01T01:21:35.279Z,99125.84
2022-12-01T01:24:02.412Z,99126.66
2022-12-01T01:26:29.510Z,99136.22
2022-12-01T01:28:56.588Z,99137.25
2022-12-01T01:31:23.652Z,99135.50
2022-12-01T01:33:50.702Z,99133.91
2022-12-01T01:36:17.943Z,99142.63
2022-12-01T01:38:45.152Z,99142.63
2022-12-01T01:41:12.209Z,99138.38
2022-12-01T01:43:39.467Z,99141.69
2022-12-01T01:46:06.579Z,99140.13
2022-12-01T01:48:33.655Z,99140.97
2022-12-01T01:51:00.721Z,99141.81
2022-12-01T01:53:27.792Z,99147.00
2022-12-01T01:55:54.841Z,99137.63
2022-12-01T01:58:21.937Z,99141.06
2022-12-01T02:00:49.016Z,99134.28
2022-12-01T02:03:16.180Z,99132.53
2022-12-01T02:05:44.884Z,99140.22
2022-12-01T02:08:14.693Z,99136.88
2022-12-01T02:10:41.750Z,99143.75
2022-12-01T02:13:08.859Z,99134.28
2022-12-01T02:15:35.921Z,99135.19
2022-12-01T02:18:02.989Z,99129.19
2022-12-01T02:20:30.178Z,99128.25
2022-12-01T02:22:57.230Z,99125.75
2022-12-01T02:25:24.316Z,99126.59
2022-12-01T02:27:51.566Z,99127.59
2022-12-01T02:30:18.673Z,99125.00
2022-12-01T02:32:45.788Z,99124.28
2022-12-01T02:35:12.974Z,99124.16
2022-12-01T02:37:40.029Z,99120.75
2022-12-01T02:40:07.135Z,99129.47
2022-12-01T02:42:50.512Z,99124.28
2022-12-01T02:45:17.591Z,99123.44
2022-12-01T02:47:44.645Z,99125.22
2022-12-01T02:50:11.902Z,99127.88
2022-12-01T02:52:39.037Z,99122.63
2022-12-01T02:55:06.123Z,99126.94
2022-12-01T02:57:33.181Z,99121.84
2022-12-01T03:00:00.285Z,99114.06
2022-12-01T03:02:27.525Z,99113.31
2022-12-01T03:04:54.995Z,99112.47
2022-12-01T03:07:22.117Z,99111.56
2022-12-01T03:09:49.645Z,99103.03
2022-12-01T03:12:17.012Z,99111.66
2022-12-01T03:14:45.130Z,99103.97
2022-12-01T03:17:12.207Z,99101.44
2022-12-01T03:19:39.280Z,99109.16
2022-12-01T03:22:06.365Z,99097.94
2022-12-01T03:24:33.427Z,99101.44
2022-12-01T03:27:00.516Z,99105.72
2022-12-01T03:29:28.022Z,99100.53
2022-12-01T03:31:55.237Z,99099.78
2022-12-01T03:34:23.982Z,99098.84
2022-12-01T03:36:51.285Z,99100.72
2022-12-01T03:39:18.388Z,99101.72
2022-12-01T03:41:45.451Z,99102.47
2022-12-01T03:44:12.574Z,99100.91
2022-12-01T03:46:41.278Z,99101.66
2022-12-01T03:49:09.653Z,99099.97
2022-12-01T03:51:36.730Z,99099.88
2022-12-01T03:54:03.868Z,99103.38
2022-12-01T03:56:30.977Z,99098.31
2022-12-01T03:58:58.353Z,99103.50
2022-12-01T04:01:26.693Z,99102.56
2022-12-01T04:03:53.819Z,99099.25
2022-12-01T04:06:20.942Z,99109.63
2022-12-01T04:08:48.053Z,99107.84
2022-12-01T04:11:33.909Z,99107.94
2022-12-01T04:14:00.968Z,99110.63
2022-12-01T04:16:28.215Z,99111.38
2022-12-01T04:18:55.837Z,99105.44
2022-12-01T04:21:23.154Z,99099.41
2022-12-01T04:24:02.550Z,99102.09
2022-12-01T04:26:29.637Z,99100.41
2022-12-01T04:28:57.173Z,99104.69
2022-12-01T04:31:24.361Z,99103.84
2022-12-01T04:33:51.511Z,99094.28
2022-12-01T04:36:18.570Z,99101.34
2022-12-01T04:38:45.667Z,99100.41
2022-12-01T04:41:12.766Z,99101.34
2022-12-01T04:43:39.818Z,99097.94
2022-12-01T04:46:06.958Z,99102.19
2022-12-01T04:48:34.031Z,99096.16
2022-12-01T04:51:01.571Z,99100.59
2022-12-01T04:53:28.737Z,99096.34
2022-12-01T04:55:55.800Z,99103.19
2022-12-01T04:58:22.868Z,99102.28
2022-12-01T05:00:49.983Z,99098.09
2022-12-01T05:03:17.135Z,99095.63
2022-12-01T05:05:44.227Z,99105.06
2022-12-01T05:08:11.355Z,99108.50
2022-12-01T05:10:38.445Z,99111.91
2022-12-01T05:13:05.566Z,99107.75
2022-12-01T05:15:32.630Z,99110.44
2022-12-01T05:17:59.783Z,99105.13
2022-12-01T05:20:45.781Z,99106.00
2022-12-01T05:23:16.784Z,99108.59
2022-12-01T05:25:44.393Z,99102.66
2022-12-01T05:28:11.536Z,99107.84
2022-12-01T05:30:38.795Z,99103.75
2022-12-01T05:33:08.903Z,99100.22
2022-12-01T05:35:35.983Z,99109.72
2022-12-01T05:38:07.552Z,99102.00
2022-12-01T05:40:35.167Z,99101.16
2022-12-01T05:43:02.270Z,99095.13
2022-12-01T05:45:29.402Z,99092.56
2022-12-01T05:47:56.564Z,99091.63
2022-12-01T05:50:23.653Z,99082.25
2022-12-01T05:52:50.726Z,99081.41
2022-12-01T05:55:18.084Z,99079.66
2022-12-01T05:57:45.278Z,99080.59
2022-12-01T06:00:12.976Z,99090.88
2022-12-01T06:02:40.070Z,99090.88
2022-12-01T06:05:07.170Z,99086.59
2022-12-01T06:07:35.719Z,99087.44
2022-12-01T06:10:02.828Z,99087.53
2022-12-01T06:12:29.969Z,99093.56
2022-12-01T06:14:57.091Z,99096.97
2022-12-01T06:17:24.180Z,99099.69
2022-12-01T06:19:51.450Z,99100.50
2022-12-01T06:22:18.757Z,99107.53
2022-12-01T06:24:45.811Z,99110.06
2022-12-01T06:27:12.908Z,99110.13
2022-12-01T06:29:42.255Z,99111.06
2022-12-01T06:32:09.661Z,99112.84
2022-12-01T06:34:36.748Z,99106.81
2022-12-01T06:37:03.903Z,99106.81
2022-12-01T06:39:30.972Z,99098.91
2022-12-01T06:41:58.120Z,99113.94
2022-12-01T06:44:25.176Z,99115.53
2022-12-01T06:46:53.002Z,99116.44
2022-12-01T06:49:20.205Z,99120.78
2022-12-01T06:51:47.525Z,99112.19
2022-12-01T06:54:15.251Z,99125.97
2022-12-01T06:56:43.220Z,99112.28
2022-12-01T06:59:10.536Z,99120.13
2022-12-01T07:01:37.877Z,99116.63
2022-12-01T07:04:05.013Z,99125.16
2022-12-01T07:06:32.069Z,99126.16
2022-12-01T07:08:59.131Z,99123.56
2022-12-01T07:11:26.215Z,99129.63
2022-12-01T07:13:53.301Z,99120.13
2022-12-01T07:16:20.430Z,99121.91
2022-12-01T07:18:47.502Z,99123.66
2022-12-01T07:21:14.797Z,99119.31
2022-12-01T07:23:41.860Z,99122.06
2022-12-01T07:26:08.958Z,99124.59
2022-12-01T07:28:36.025Z,99124.59
2022-12-01T07:31:03.306Z,99124.59
2022-12-01T07:33:30.561Z,99131.44
2022-12-01T07:35:57.675Z,99126.25
2022-12-01T07:38:24.758Z,99130.50
2022-12-01T07:40:52.084Z,99128.84
2022-12-01T07:43:19.184Z,99131.44
2022-12-01T07:45:46.540Z,99131.34
2022-12-01T07:48:13.667Z,99143.66
2022-12-01T07:50:40.840Z,99136.53
2022-12-01T07:53:07.963Z,99138.22
2022-12-01T07:55:35.149Z,99136.53
2022-12-01T07:58:02.266Z,99131.34
2022-12-01T08:00:29.398Z,99130.44
2022-12-01T08:02:56.560Z,99129.41
2022-12-01T08:05:23.651Z,99132.00
2022-12-01T08:07:50.742Z,99135.47
2022-12-01T08:10:17.846Z,99132.75
2022-12-01T08:12:44.898Z,99135.34
2022-12-01T08:15:12.025Z,99127.56
2022-12-01T08:17:39.109Z,99126.63
2022-12-01T08:20:06.259Z,99123.97
2022-12-01T08:22:33.386Z,99123.97
2022-12-01T08:25:00.654Z,99124.88
2022-12-01T08:27:27.753Z,99129.16
2022-12-01T08:29:54.813Z,99124.81
2022-12-01T08:32:21.886Z,99122.22
2022-12-01T08:34:53.315Z,99128.22
2022-12-01T08:37:20.985Z,99123.75
2022-12-01T08:39:48.383Z,99132.41
2022-12-01T08:42:15.618Z,99136.66
2022-12-01T08:44:42.715Z,99134.91
2022-12-01T08:47:12.041Z,99136.66
2022-12-01T08:49:41.437Z,99133.13
2022-12-01T08:52:08.495Z,99132.13
2022-12-01T08:54:35.547Z,99135.75
2022-12-01T08:57:02.602Z,99135.75
2022-12-01T08:59:29.706Z,99138.16
2022-12-01T09:01:57.450Z,99136.84
2022-12-01T09:04:24.845Z,99145.28
2022-12-01T09:06:52.016Z,99143.34
2022-12-01T09:09:19.085Z,99149.19
2022-12-01T09:11:46.223Z,99155.22
2022-12-01T09:14:13.359Z,99149.19
2022-12-01T09:16:40.484Z,99158.66
2022-12-01T09:19:07.666Z,99155.69
2022-12-01T09:21:34.841Z,99160.59
2022-12-01T09:24:01.935Z,99154.47
2022-12-01T09:26:29.083Z,99161.72
2022-12-01T09:28:56.172Z,99160.88
2022-12-01T09:31:23.582Z,99154.88
2022-12-01T09:33:51.598Z,99154.75
2022-12-01T09:36:18.670Z,99154.88
2022-12-01T09:38:45.726Z,99152.06
2022-12-01T09:41:12.789Z,99140.78
2022-12-01T09:43:40.229Z,99144.28
2022-12-01T09:46:09.290Z,99142.53
2022-12-01T09:48:42.520Z,99145.13
2022-12-01T09:51:09.585Z,99146.97
2022-12-01T09:53:36.920Z,99136.03
2022-12-01T09:56:09.984Z,99127.13
2022-12-01T09:58:39.936Z,99132.69
2022-12-01T10:01:07.066Z,99130.00
2022-12-01T10:03:34.203Z,99128.53
2022-12-01T10:08:48.837Z,99125.75
2022-12-01T10:11:15.916Z,99119.63
2022-12-01T10:13:43.919Z,99117.03
2022-12-01T10:16:11.206Z,99113.41
2022-12-01T10:18:38.462Z,99111.75
2022-12-01T10:21:05.587Z,99112.47
2022-12-01T10:23:32.644Z,99110.00
2022-12-01T10:25:59.860Z,99101.19
2022-12-01T10:28:26.957Z,99097.72
2022-12-01T10:30:54.014Z,99096.00
2022-12-01T10:33:21.070Z,99089.94
2022-12-01T10:35:48.168Z,99089.75
2022-12-01T10:38:15.293Z,99084.50
2022-12-01T10:40:42.723Z,99087.91
2022-12-01T10:43:09.863Z,99084.50
2022-12-01T10:45:37.015Z,99093.00
2022-12-01T10:48:04.126Z,99088.66
2022-12-01T10:50:31.206Z,99084.28
2022-12-01T10:52:58.271Z,99082.53
2022-12-01T10:55:28.550Z,99082.63
2022-12-01T10:57:55.623Z,99092.00
2022-12-01T11:00:57.482Z,99083.25
2022-12-01T11:03:10.004Z,99085.78
2022-12-01T11:05:37.238Z,99078.06
2022-12-01T11:08:04.316Z,99078.06
2022-12-01T11:10:31.573Z,99074.34
2022-12-01T11:12:58.699Z,99073.53
2022-12-01T11:15:25.761Z,99077.06
2022-12-01T11:17:52.833Z,99068.34
2022-12-01T11:20:19.992Z,99069.16
2022-12-01T11:22:47.126Z,99067.31
2022-12-01T11:25:14.193Z,99059.41
2022-12-01T11:27:41.282Z,99062.94
2022-12-01T11:30:08.415Z,99061.28
2022-12-01T11:32:35.553Z,99060.47
2022-12-01T11:35:02.862Z,99061.28
2022-12-01T11:37:29.997Z,99056.00
2022-12-01T11:39:57.174Z,99055.06
2022-12-01T11:42:24.256Z,99057.66
2022-12-01T11:44:52.238Z,99053.03
2022-12-01T11:47:24.407Z,99053.94
2022-12-01T11:49:52.450Z,99052.28
2022-12-01T11:52:19.968Z,99051.25
2022-12-01T11:54:47.034Z,99045.88
2022-12-01T11:57:35.197Z,99041.59
2022-12-01T12:00:01.149Z,99045.00
2022-12-01T12:02:28.339Z,99047.63
2022-12-01T12:04:55.588Z,99045.88
2022-12-01T12:07:22.713Z,99038.91
2022-12-01T12:09:49.922Z,99035.28
2022-12-01T12:12:17.109Z,99036.31
2022-12-01T12:14:44.198Z,99041.31
2022-12-01T12:17:11.252Z,99037.03
2022-12-01T12:20:06.205Z,99039.44
2022-12-01T12:22:25.367Z,99026.47
2022-12-01T12:24:52.428Z,99029.06
2022-12-01T12:27:19.504Z,99025.44
2022-12-01T12:29:46.609Z,99025.63
2022-12-01T12:32:13.720Z,99027.69
2022-12-01T12:34:40.845Z,99026.22
2022-12-01T12:37:07.973Z,99019.59
2022-12-01T12:39:35.032Z,99020.31
2022-12-01T12:42:02.272Z,99018.47
2022-12-01T12:44:33.885Z,99023.78
2022-12-01T12:47:04.242Z,99015.88
2022-12-01T12:49:31.333Z,99016.72
2022-12-01T12:51:58.436Z,99012.25
2022-12-01T12:54:25.575Z,99019.13
2022-12-01T12:56:52.872Z,99015.78
2022-12-01T12:59:19.921Z,99013.16
2022-12-01T13:01:47.031Z,99016.41
2022-12-01T13:04:14.202Z,99006.84
2022-12-01T13:06:41.267Z,99013.81
2022-12-01T13:09:08.411Z,99009.44
2022-12-01T13:11:35.473Z,99014.56
2022-12-01T13:14:02.556Z,99009.44
2022-12-01T13:16:29.650Z,99008.53
2022-12-01T13:18:59.773Z,99011.13
2022-12-01T13:21:26.899Z,99011.03
2022-12-01T13:23:53.987Z,99006.75
2022-12-01T13:26:21.052Z,99007.47
2022-12-01T13:28:48.317Z,99003.22
2022-12-01T13:31:15.476Z,99006.66
2022-12-01T13:33:42.590Z,99007.47
2022-12-01T13:38:56.712Z,99004.06
2022-12-01T13:41:24.173Z,98998.84
2022-12-01T13:43:51.247Z,98999.50
2022-12-01T13:46:18.496Z,98997.00
2022-12-01T13:48:45.673Z,98995.25
2022-12-01T13:51:12.730Z,98995.44
2022-12-01T13:53:39.787Z,98985.69
2022-12-01T13:56:06.938Z,98985.56
2022-12-01T13:58:34.038Z,98983.91
2022-12-01T14:01:01.189Z,98977.69
2022-12-01T14:03:28.466Z,98980.19
2022-12-01T14:05:58.459Z,98982.06
2022-12-01T14:08:25.616Z,98980.28
2022-12-01T14:10:52.737Z,98976.75
2022-12-01T14:13:21.270Z,98974.94
2022-12-01T14:15:48.373Z,98975.91
2022-12-01T14:18:15.518Z,98971.47
2022-12-01T14:20:42.584Z,98974.06
2022-12-01T14:23:09.727Z,98972.13
2022-12-01T14:25:37.585Z,98973.88
2022-12-01T14:28:04.649Z,98977.22
2022-12-01T14:30:31.725Z,98975.66
2022-12-01T14:32:58.825Z,98981.66
2022-12-01T14:35:25.909Z,98976.47
2022-12-01T14:37:53.012Z,98977.41
2022-12-01T14:40:20.214Z,98976.41
2022-12-01T14:43:05.968Z,98982.41
2022-12-01T14:45:33.066Z,98975.34
2022-12-01T14:48:00.142Z,98980.53
2022-12-01T14:50:27.197Z,98974.50
2022-12-01T14:52:54.346Z,98979.72
2022-12-01T14:55:21.414Z,98975.34
2022-12-01T14:57:48.690Z,98972.75
2022-12-01T15:00:15.772Z,98977.03
2022-12-01T15:02:42.859Z,98970.88
2022-12-01T15:05:10.200Z,98970.16
2022-12-01T15:07:37.310Z,98976.91
2022-12-01T15:10:04.769Z,98981.16
2022-12-01T15:12:32.098Z,98981.47
2022-12-01T15:14:59.156Z,98983.13
2022-12-01T15:17:26.257Z,98987.84
2022-12-01T15:19:53.445Z,98985.28
2022-12-01T15:22:20.626Z,98986.53
2022-12-01T15:24:47.924Z,98988.22
2022-12-01T15:27:15.290Z,98986.13
2022-12-01T15:29:44.018Z,98983.31
2022-12-01T15:32:11.133Z,98989.28
2022-12-01T15:34:38.253Z,98991.03
2022-12-01T15:37:05.565Z,98998.72
2022-12-01T15:39:32.670Z,98995.38
2022-12-01T15:41:59.806Z,98993.66
2022-12-01T15:44:27.061Z,98990.09
2022-12-01T15:46:54.175Z,98994.47
2022-12-01T15:49:21.319Z,98989.16
2022-12-01T15:51:48.403Z,98990.81
2022-12-01T15:54:15.471Z,98995.50
2022-12-01T15:56:42.594Z,98990.31
2022-12-01T15:59:09.849Z,98992.81
2022-12-01T16:01:37.254Z,98988.56
2022-12-01T16:04:04.448Z,98987.69
2022-12-01T16:06:31.567Z,98989.78
2022-12-01T16:08:59.399Z,98990.22
2022-12-01T16:11:26.641Z,98989.06
2022-12-01T16:13:53.700Z,98989.81
2022-12-01T16:16:20.774Z,98988.13
2022-12-01T16:18:47.863Z,98984.28
2022-12-01T16:21:14.952Z,98980.53
2022-12-01T16:23:42.056Z,98983.25
2022-12-01T16:26:09.130Z,98983.03
2022-12-01T16:28:36.261Z,98983.78
2022-12-01T16:31:05.461Z,98994.06
2022-12-01T16:33:32.869Z,98988.03
2022-12-01T16:35:59.925Z,98994.19
2022-12-01T16:38:28.342Z,98998.25
2022-12-01T16:40:55.401Z,99000.63
2022-12-01T16:43:22.486Z,99012.91
2022-12-01T16:45:52.815Z,99002.31
2022-12-01T16:48:20.395Z,99004.06
2022-12-01T16:50:47.461Z,99011.25
2022-12-01T16:53:14.613Z,99009.47
2022-12-01T16:55:41.729Z,99004.78
2022-12-01T16:58:08.782Z,99003.25
2022-12-01T17:00:35.903Z,99009.28
2022-12-01T17:03:03.039Z,99005.09
2022-12-01T17:05:30.154Z,99010.31
2022-12-01T17:07:57.293Z,99012.81
2022-12-01T17:10:24.409Z,99014.28
2022-12-01T17:12:51.516Z,99016.13
2022-12-01T17:15:18.581Z,99017.41
2022-12-01T17:17:45.744Z,99012.91
2022-12-01T17:20:12.867Z,99007.50
2022-12-01T17:22:39.943Z,99010.94
2022-12-01T17:25:08.785Z,99009.47
2022-12-01T17:27:35.854Z,99007.72
2022-12-01T17:30:03.140Z,99009.16
2022-12-01T17:32:30.270Z,98999.78
2022-12-01T17:34:57.355Z,98994.91
2022-12-01T17:37:24.455Z,99000.31
2022-12-01T17:39:51.522Z,98989.91
2022-12-01T17:42:18.634Z,99001.25
2022-12-01T17:44:45.707Z,99002.06
2022-12-01T17:47:12.810Z,98998.84
2022-12-01T17:49:39.882Z,98998.84
2022-12-01T17:52:07.132Z,98997.91
2022-12-01T17:54:34.449Z,98999.88
2022-12-01T17:57:01.533Z,99004.25
2022-12-01T17:59:28.622Z,99004.25
2022-12-01T18:01:55.729Z,99005.19
2022-12-01T18:04:22.863Z,99001.75
2022-12-01T18:06:53.961Z,99001.97
2022-12-01T18:09:21.701Z,99008.41
2022-12-01T18:11:48.796Z,99006.44
2022-12-01T18:14:18.956Z,99007.81
2022-12-01T18:16:46.041Z,99013.75
2022-12-01T18:19:13.150Z,99018.84
2022-12-01T18:21:40.233Z,99009.06
2022-12-01T18:24:08.917Z,99018.53
2022-12-01T18:26:36.006Z,99018.41
2022-12-01T18:29:03.116Z,99016.75
2022-12-01T18:31:30.500Z,99025.31
2022-12-01T18:33:58.403Z,99022.78
2022-12-01T18:36:25.499Z,99018.34
2022-12-01T18:38:53.430Z,99026.22
2022-12-01T18:41:20.498Z,99027.06
2022-12-01T18:43:47.588Z,99028.22
2022-12-01T18:46:14.892Z,99028.31
2022-12-01T18:48:42.013Z,99030.53
2022-12-01T18:51:09.148Z,99026.66
2022-12-01T18:53:36.286Z,99022.91
2022-12-01T18:56:03.603Z,99020.09
2022-12-01T18:58:30.677Z,99022.06
2022-12-01T19:00:57.801Z,99025.19
2022-12-01T19:03:24.889Z,99021.03
2022-12-01T19:05:51.963Z,99022.28
2022-12-01T19:08:19.167Z,99012.28
2022-12-01T19:10:46.288Z,99014.25
2022-12-01T19:13:13.363Z,99013.44
2022-12-01T19:15:40.460Z,99015.31
2022-12-01T19:18:07.514Z,99013.75
2022-12-01T19:20:34.622Z,99007.78
2022-12-01T19:23:01.754Z,99012.09
2022-12-01T19:25:28.966Z,99010.63
2022-12-01T19:27:56.025Z,99008.03
2022-12-01T19:30:23.146Z,99005.50
2022-12-01T19:32:50.223Z,99008.94
2022-12-01T19:35:17.324Z,99002.06
2022-12-01T19:37:44.423Z,99003.84
2022-12-01T19:40:11.501Z,99007.41
2022-12-01T19:42:38.571Z,99005.72
2022-12-01T19:45:05.668Z,99002.38
2022-12-01T19:47:32.746Z,99002.38
2022-12-01T19:49:59.831Z,99013.81
2022-12-01T19:52:26.943Z,99012.88
2022-12-01T19:54:54.041Z,99012.06
2022-12-01T19:57:21.106Z,99017.38
2022-12-01T19:59:48.162Z,99015.59
2022-12-01T20:02:15.260Z,99015.34
2022-12-01T20:04:42.372Z,99018.78
2022-12-01T20:07:09.483Z,99018.19
2022-12-01T20:09:36.551Z,99018.28
2022-12-01T20:12:03.679Z,99019.13
2022-12-01T20:14:30.777Z,99017.06
2022-12-01T20:16:57.866Z,99022.25
2022-12-01T20:19:24.966Z,99015.19
2022-12-01T20:21:52.033Z,99016.84
2022-12-01T20:24:20.249Z,99025.59
2022-12-01T20:26:47.360Z,99014.44
2022-12-01T20:29:14.776Z,99015.47
2022-12-01T20:31:41.999Z,99010.28
2022-12-01T20:34:09.153Z,99015.41
2022-12-01T20:36:36.223Z,99017.25
2022-12-01T20:39:03.371Z,99012.16
2022-12-01T20:41:30.456Z,99019.84
2022-12-01T20:44:00.158Z,99017.25
2022-12-01T20:46:30.905Z,99019.13
2022-12-01T20:48:57.969Z,99012.16
2022-12-01T20:51:25.049Z,99013.81
2022-12-01T20:54:19.545Z,99010.72
2022-12-01T20:56:39.450Z,99010.59
2022-12-01T20:59:06.566Z,99013.19
2022-12-01T21:01:33.721Z,99007.28
2022-12-01T21:04:00.966Z,99008.00
2022-12-01T21:06:29.615Z,99015.16
2022-12-01T21:08:56.709Z,99009.34
2022-12-01T21:11:43.742Z,99006.94
2022-12-01T21:14:10.810Z,99010.91
2022-12-01T21:16:37.961Z,99017.25
2022-12-01T21:19:06.466Z,99012.03
2022-12-01T21:21:33.534Z,99011.28
2022-12-01T21:24:00.613Z,99011.00
2022-12-01T21:26:27.740Z,99013.50
2022-12-01T21:28:54.807Z,99012.75
2022-12-01T21:31:21.904Z,99006.53
2022-12-01T21:33:48.982Z,99012.44
2022-12-01T21:36:16.748Z,99015.22
2022-12-01T21:38:43.828Z,99014.09
2022-12-01T21:41:10.875Z,99018.56
2022-12-01T21:43:38.623Z,99013.38
2022-12-01T21:46:05.878Z,99013.38
2022-12-01T21:48:33.003Z,99007.16
2022-12-01T21:51:00.087Z,99007.03
2022-12-01T21:53:27.171Z,99002.03
2022-12-01T21:55:54.244Z,98999.34
2022-12-01T21:58:21.331Z,98998.59
2022-12-01T22:00:48.416Z,99005.56
2022-12-01T22:03:15.465Z,98995.38
2022-12-01T22:05:42.860Z,98993.81
2022-12-01T22:08:13.078Z,98992.88
2022-12-01T22:10:40.122Z,98988.59
2022-12-01T22:13:07.179Z,98993.91
2022-12-01T22:15:34.340Z,98995.69
2022-12-01T22:18:01.460Z,98986.84
2022-12-01T22:20:28.621Z,98992.34
2022-12-01T22:22:55.679Z,98990.56
2022-12-01T22:25:22.746Z,98987.88
2022-12-01T22:27:49.798Z,98986.94
2022-12-01T22:30:16.899Z,98986.22
2022-12-01T22:32:44.098Z,98988.81
2022-12-01T22:35:11.199Z,98989.03
2022-12-01T22:37:38.262Z,98985.47
2022-12-01T22:40:05.307Z,98986.41
2022-12-01T22:42:32.358Z,98977.78
2022-12-01T22:44:59.412Z,98981.22
2022-12-01T22:47:26.461Z,98976.97
2022-12-01T22:49:53.515Z,98982.56
2022-12-01T22:52:20.567Z,98975.47
2022-12-01T22:54:49.413Z,98977.16
2022-12-01T22:57:16.835Z,98972.88
2022-12-01T22:59:43.936Z,98978.06
2022-12-01T23:02:11.113Z,98973.94
2022-12-01T23:04:38.198Z,98965.31
2022-12-01T23:07:05.306Z,98969.63
2022-12-01T23:09:32.369Z,98973.09
2022-12-01T23:11:59.465Z,98976.72
2022-12-01T23:14:26.517Z,98974.94
2022-12-01T23:16:53.634Z,98974.84
2022-12-01T23:19:20.735Z,98971.63
2022-12-01T23:21:47.867Z,98974.44
2022-12-01T23:24:14.989Z,98972.75
2022-12-01T23:26:42.062Z,98977.34
2022-12-01T23:29:09.118Z,98960.88
2022-12-01T23:31:36.300Z,98967.84
2022-12-01T23:34:03.381Z,98962.66
2022-12-01T23:36:30.431Z,98961.63
2022-12-01T23:38:57.506Z,98965.16
2022-12-01T23:41:25.803Z,98955.50
2022-12-01T23:43:53.040Z,98954.66
2022-12-01T23:46:20.177Z,98949.34
2022-12-01T23:48:47.275Z,98949.34
2022-12-01T23:51:14.376Z,98946.88
2022-12-01T23:53:41.442Z,98945.22
2022-12-01T23:56:08.497Z,98940.84
2022-12-01T23:58:35.595Z,98942.81
